Time;durP1;ratioP1;P1;durP2;ratioP2;P2;SDS_P1;SDS_P2;PMS_P1;PMS_P2;Temp;Humidity;BMP_temperature;BMP_pressure;BME280_temperature;BME280_humidity;BME280_pressure;Samples;Min_cycle;Max_cycle;Signal;HPM_P1;HPM_P2
2023/09/11 00:01:50;;;;;;;28.05;19.20;;;19.80;99.90;;;;;;5079823;28;20506;-85
2023/09/11 00:04:17;;;;;;;25.77;19.08;;;19.80;99.90;;;;;;5096018;28;20046;-86
2023/09/11 00:06:43;;;;;;;29.58;19.88;;;19.80;99.90;;;;;;5095734;28;20079;-86
2023/09/11 00:09:10;;;;;;;25.80;18.30;;;19.80;99.90;;;;;;5079512;28;20040;-86
2023/09/11 00:11:37;;;;;;;29.20;19.40;;;19.70;99.90;;;;;;5112036;28;20122;-86
2023/09/11 00:14:04;;;;;;;32.33;20.30;;;19.70;99.90;;;;;;5095960;28;20118;-86
2023/09/11 00:16:30;;;;;;;28.98;18.85;;;19.70;99.90;;;;;;5081257;28;20039;-86
2023/09/11 00:18:57;;;;;;;30.05;20.25;;;19.70;99.90;;;;;;5099717;28;20040;-86
2023/09/11 00:21:24;;;;;;;32.45;20.40;;;19.70;99.90;;;;;;5099562;28;20403;-85
2023/09/11 00:23:51;;;;;;;31.30;18.90;;;19.60;99.90;;;;;;5099358;28;20063;-85
2023/09/11 00:26:17;;;;;;;27.67;19.67;;;19.60;99.90;;;;;;5082791;28;20040;-86
2023/09/11 00:28:44;;;;;;;27.92;19.15;;;19.60;99.90;;;;;;5099410;28;20122;-86
2023/09/11 00:31:11;;;;;;;27.48;19.38;;;19.60;99.90;;;;;;5115869;28;20444;-85
2023/09/11 00:33:37;;;;;;;26.70;19.48;;;19.60;99.90;;;;;;5082370;28;20051;-86
2023/09/11 00:36:04;;;;;;;26.88;18.58;;;19.60;99.90;;;;;;5082594;28;20039;-86
2023/09/11 00:38:31;;;;;;;29.77;19.13;;;19.60;99.90;;;;;;5099364;28;20042;-86
2023/09/11 00:40:58;;;;;;;25.85;18.55;;;19.50;99.90;;;;;;5099426;28;20031;-86
2023/09/11 00:43:24;;;;;;;26.63;19.40;;;19.50;99.90;;;;;;5099226;28;20122;-86
2023/09/11 00:45:51;;;;;;;26.38;18.90;;;19.50;99.90;;;;;;5132538;28;20044;-86
2023/09/11 00:48:18;;;;;;;27.13;18.35;;;19.50;99.90;;;;;;5098892;28;20168;-86
2023/09/11 00:50:49;;;;;;;29.55;19.23;;;19.40;99.90;;;;;;5082228;28;20682;-86
2023/09/11 00:53:17;;;;;;;27.92;18.35;;;19.40;99.90;;;;;;5099078;28;20043;-86
2023/09/11 00:55:45;;;;;;;25.58;17.15;;;19.40;99.90;;;;;;5098585;28;20039;-86
2023/09/11 00:58:16;;;;;;;25.75;17.83;;;19.30;99.90;;;;;;5099054;28;20119;-85
2023/09/11 01:00:45;;;;;;;26.90;18.65;;;19.40;99.90;;;;;;5098988;28;20035;-86
2023/09/11 01:03:15;;;;;;;21.65;16.90;;;19.30;99.90;;;;;;5099586;28;20415;-86
2023/09/11 01:05:43;;;;;;;26.77;19.13;;;19.30;99.90;;;;;;5115188;28;20123;-86
2023/09/11 01:08:09;;;;;;;26.95;17.73;;;19.30;99.90;;;;;;5132296;28;20039;-85
2023/09/11 01:10:36;;;;;;;26.00;17.77;;;19.30;99.90;;;;;;5098088;28;20100;-86
2023/09/11 01:13:04;;;;;;;24.77;18.40;;;19.30;99.90;;;;;;5098643;28;20078;-86
2023/09/11 01:15:40;;;;;;;26.40;17.92;;;19.30;99.90;;;;;;5098825;28;20065;-86
2023/09/11 01:18:14;;;;;;;26.35;17.60;;;19.30;99.90;;;;;;5115535;28;20081;-86
2023/09/11 01:20:57;;;;;;;25.50;18.00;;;19.20;99.90;;;;;;5115012;28;20039;-86
2023/09/11 01:23:30;;;;;;;22.13;16.67;;;19.30;99.90;;;;;;5131899;28;20039;-86
2023/09/11 01:26:18;;;;;;;26.80;17.73;;;19.20;99.90;;;;;;5131639;28;20053;-86
2023/09/11 01:29:06;;;;;;;24.98;17.25;;;19.20;99.90;;;;;;5115118;28;20043;-86
2023/09/11 01:31:35;;;;;;;27.08;17.63;;;19.20;99.90;;;;;;5114651;28;20514;-85
2023/09/11 01:34:04;;;;;;;31.38;17.13;;;19.20;99.90;;;;;;5115336;28;20043;-86
2023/09/11 01:36:30;;;;;;;22.98;16.65;;;19.20;99.90;;;;;;5097910;28;20495;-86
2023/09/11 01:38:58;;;;;;;25.33;16.08;;;19.20;99.90;;;;;;5098075;28;20036;-85
2023/09/11 01:41:31;;;;;;;29.27;18.00;;;19.20;99.90;;;;;;5081727;28;20044;-86
2023/09/11 01:44:02;;;;;;;24.25;16.63;;;19.10;99.90;;;;;;5130979;28;20411;-86
2023/09/11 01:46:29;;;;;;;22.38;15.95;;;19.20;99.90;;;;;;5098739;28;20035;-86
2023/09/11 01:48:58;;;;;;;22.70;16.20;;;19.20;99.90;;;;;;5097169;28;20035;-86
2023/09/11 01:51:25;;;;;;;26.17;16.30;;;19.10;99.90;;;;;;5131192;28;20527;-85
2023/09/11 01:53:53;;;;;;;24.65;16.30;;;19.10;99.90;;;;;;5114445;28;20035;-86
2023/09/11 01:56:20;;;;;;;22.65;15.68;;;19.10;99.90;;;;;;5113899;28;20164;-85
2023/09/11 01:58:47;;;;;;;21.58;16.30;;;19.00;99.90;;;;;;5097316;28;20039;-86
2023/09/11 02:01:13;;;;;;;22.33;15.63;;;19.00;99.90;;;;;;5097708;28;20035;-86
2023/09/11 02:03:40;;;;;;;29.65;17.65;;;19.00;99.90;;;;;;5080587;28;20043;-86
2023/09/11 02:06:07;;;;;;;23.88;16.15;;;19.00;99.90;;;;;;5097313;28;20495;-85
2023/09/11 02:08:34;;;;;;;24.95;15.68;;;19.00;99.90;;;;;;5097459;28;20096;-85
2023/09/11 02:11:00;;;;;;;26.25;16.40;;;19.00;99.90;;;;;;5080327;28;20526;-86
2023/09/11 02:13:27;;;;;;;20.40;15.93;;;18.90;99.90;;;;;;5097258;28;20038;-86
2023/09/11 02:15:54;;;;;;;25.85;16.23;;;19.00;99.90;;;;;;5080719;28;20044;-86
2023/09/11 02:18:20;;;;;;;24.58;15.75;;;19.00;99.90;;;;;;5113938;28;20035;-85
2023/09/11 02:20:47;;;;;;;25.50;16.33;;;18.90;99.90;;;;;;5096877;28;20104;-85
2023/09/11 02:23:16;;;;;;;23.63;16.75;;;19.00;99.90;;;;;;5097298;28;20040;-85
2023/09/11 02:25:42;;;;;;;28.67;16.42;;;19.00;99.90;;;;;;5130219;28;20062;-85
2023/09/11 02:28:09;;;;;;;22.92;15.07;;;18.90;99.90;;;;;;5080661;28;20032;-86
2023/09/11 02:30:36;;;;;;;21.52;15.45;;;18.90;99.90;;;;;;5096874;28;20047;-86
2023/09/11 02:33:03;;;;;;;23.30;16.73;;;18.90;99.90;;;;;;5113429;28;20040;-86
2023/09/11 02:35:31;;;;;;;24.75;15.35;;;18.90;99.90;;;;;;5097229;28;20043;-86
2023/09/11 02:38:00;;;;;;;21.50;15.68;;;18.90;99.90;;;;;;5096100;28;20036;-85
2023/09/11 02:40:27;;;;;;;23.38;15.20;;;18.80;99.90;;;;;;5113939;28;20043;-86
2023/09/11 02:42:54;;;;;;;27.50;15.38;;;18.80;99.90;;;;;;5096677;28;20118;-86
2023/09/11 02:45:20;;;;;;;24.38;14.85;;;18.80;99.90;;;;;;5096954;28;20036;-86
2023/09/11 02:47:47;;;;;;;20.63;14.43;;;18.80;99.90;;;;;;5096427;28;20039;-86
2023/09/11 02:50:14;;;;;;;22.70;14.45;;;18.70;99.90;;;;;;5096517;28;20035;-86
2023/09/11 02:52:41;;;;;;;20.58;13.98;;;18.70;99.90;;;;;;5096642;28;20039;-86
2023/09/11 02:55:11;;;;;;;22.33;13.85;;;18.70;99.90;;;;;;5096617;28;20031;-86
2023/09/11 02:57:38;;;;;;;24.92;14.63;;;18.70;99.90;;;;;;5080885;28;20035;-86
2023/09/11 03:00:08;;;;;;;22.92;13.98;;;18.60;99.90;;;;;;5081124;28;20039;-86
2023/09/11 03:02:34;;;;;;;19.63;14.15;;;18.60;99.90;;;;;;5076821;28;20035;-86
2023/09/11 03:05:01;;;;;;;20.15;13.23;;;18.60;99.90;;;;;;5075828;28;20104;-86
2023/09/11 03:07:28;;;;;;;22.98;14.85;;;18.60;99.90;;;;;;5060049;28;20036;-86
2023/09/11 03:09:54;;;;;;;17.38;13.93;;;18.60;99.90;;;;;;5109365;28;20043;-86
2023/09/11 03:12:21;;;;;;;22.02;14.60;;;18.60;99.90;;;;;;5075436;28;20089;-86
2023/09/11 03:14:53;;;;;;;22.55;14.20;;;18.50;99.90;;;;;;5075917;28;20507;-84
2023/09/11 03:17:20;;;;;;;21.88;14.10;;;18.50;99.90;;;;;;5109416;28;20530;-86
2023/09/11 03:19:47;;;;;;;22.70;14.35;;;18.50;99.90;;;;;;5059782;28;20039;-85
2023/09/11 03:22:13;;;;;;;17.70;13.00;;;18.50;99.90;;;;;;5076064;28;20126;-85
2023/09/11 03:24:40;;;;;;;22.85;14.95;;;18.50;99.90;;;;;;5059309;28;20063;-86
2023/09/11 03:27:07;;;;;;;19.00;14.15;;;18.50;99.90;;;;;;5092167;28;20131;-86
2023/09/11 03:29:33;;;;;;;22.95;14.30;;;18.40;99.90;;;;;;5092570;28;20040;-86
2023/09/11 03:32:00;;;;;;;20.88;13.70;;;18.40;99.90;;;;;;5092127;28;20488;-85
2023/09/11 03:34:27;;;;;;;22.25;13.57;;;18.50;99.90;;;;;;5106283;28;20484;-86
2023/09/11 03:36:53;;;;;;;20.50;13.82;;;18.40;99.90;;;;;;5079340;28;20078;-86
2023/09/11 03:39:20;;;;;;;20.98;14.07;;;18.40;99.90;;;;;;5079411;28;20063;-86
2023/09/11 03:41:47;;;;;;;20.55;12.95;;;18.40;99.90;;;;;;5112945;28;20055;-86
2023/09/11 03:44:13;;;;;;;19.15;14.00;;;18.40;99.90;;;;;;5079220;28;20066;-86
2023/09/11 03:46:40;;;;;;;22.00;14.00;;;18.40;99.90;;;;;;5096209;28;20131;-86
2023/09/11 03:49:07;;;;;;;21.60;12.68;;;18.40;99.90;;;;;;5095845;28;20043;-86
2023/09/11 03:51:34;;;;;;;25.65;13.15;;;18.40;99.90;;;;;;5100127;28;20403;-85
2023/09/11 03:54:07;;;;;;;24.13;14.43;;;18.40;99.90;;;;;;5082975;28;20437;-86
2023/09/11 03:56:33;;;;;;;18.70;13.48;;;18.40;99.90;;;;;;5116786;28;20031;-86
2023/09/11 03:59:00;;;;;;;22.42;13.18;;;18.40;99.90;;;;;;5116094;28;20066;-85
2023/09/11 04:01:27;;;;;;;18.13;13.65;;;18.40;99.90;;;;;;5083146;28;20483;-86
2023/09/11 04:03:53;;;;;;;19.42;14.48;;;18.30;99.90;;;;;;5099688;28;20042;-86
2023/09/11 04:06:20;;;;;;;25.13;14.15;;;18.30;99.90;;;;;;5083084;28;20487;-86
2023/09/11 04:08:48;;;;;;;19.55;13.60;;;18.30;99.90;;;;;;5099959;28;20043;-85
2023/09/11 04:11:18;;;;;;;20.55;12.98;;;18.30;99.90;;;;;;5099597;28;20052;-85
2023/09/11 04:13:44;;;;;;;19.50;13.48;;;18.30;99.90;;;;;;5099937;28;20036;-86
2023/09/11 04:16:11;;;;;;;20.13;14.18;;;18.30;99.90;;;;;;5099384;28;20176;-85
2023/09/11 04:18:38;;;;;;;23.73;13.00;;;18.30;99.90;;;;;;5099434;28;20036;-86
2023/09/11 04:21:05;;;;;;;22.90;14.00;;;18.30;99.90;;;;;;5099035;28;20130;-85
2023/09/11 04:23:32;;;;;;;20.88;12.95;;;18.20;99.90;;;;;;5112357;28;20588;-85
2023/09/11 04:25:59;;;;;;;16.88;12.27;;;18.20;99.90;;;;;;5132804;28;20134;-84
2023/09/11 04:28:25;;;;;;;19.02;12.65;;;18.30;99.90;;;;;;5099374;28;20066;-86
2023/09/11 04:30:52;;;;;;;21.08;14.00;;;18.20;99.90;;;;;;5115434;28;20101;-85
2023/09/11 04:33:20;;;;;;;20.85;14.02;;;18.20;99.90;;;;;;5098556;28;20040;-86
2023/09/11 04:35:47;;;;;;;21.65;13.70;;;18.20;99.90;;;;;;5132913;28;20038;-86
2023/09/11 04:38:13;;;;;;;19.30;13.32;;;18.20;99.90;;;;;;5098687;28;20039;-86
2023/09/11 04:40:40;;;;;;;19.02;13.07;;;18.20;99.90;;;;;;5082731;28;20051;-81
2023/09/11 04:43:06;;;;;;;20.88;13.20;;;18.20;99.90;;;;;;5098744;28;20048;-81
2023/09/11 04:45:33;;;;;;;25.58;13.93;;;18.20;99.90;;;;;;5098871;28;20097;-81
2023/09/11 04:48:00;;;;;;;22.40;12.93;;;18.20;99.90;;;;;;5099037;28;20053;-81
2023/09/11 04:50:27;;;;;;;21.83;12.93;;;18.20;99.90;;;;;;5081908;28;20502;-81
2023/09/11 04:52:56;;;;;;;17.95;12.90;;;18.20;99.90;;;;;;5081795;28;20046;-81
2023/09/11 04:55:23;;;;;;;26.80;14.05;;;18.20;99.90;;;;;;5098492;28;20039;-81
2023/09/11 04:57:49;;;;;;;24.15;13.30;;;18.20;99.90;;;;;;5084873;28;20036;-81
2023/09/11 05:00:16;;;;;;;22.13;13.73;;;18.20;99.90;;;;;;5061391;28;20085;-81
2023/09/11 05:02:46;;;;;;;20.45;13.48;;;18.20;99.90;;;;;;5094025;28;20097;-81
2023/09/11 05:05:12;;;;;;;18.95;13.20;;;18.20;99.90;;;;;;5062160;28;20035;-81
2023/09/11 05:07:39;;;;;;;18.63;13.88;;;18.20;99.90;;;;;;5095187;28;20028;-81
2023/09/11 05:10:08;;;;;;;18.85;13.48;;;18.20;99.90;;;;;;5077952;28;20098;-82
2023/09/11 05:12:34;;;;;;;25.92;13.40;;;18.20;99.90;;;;;;5078755;28;20040;-81
2023/09/11 05:18:27;;;;;;;30.50;13.57;;;18.20;99.90;;;;;;5111111;28;20044;-81
2023/09/11 05:20:54;;;;;;;24.23;14.30;;;18.20;99.90;;;;;;5111559;28;20054;-82
2023/09/11 05:23:21;;;;;;;17.40;13.02;;;18.20;99.90;;;;;;5077885;28;20040;-81
2023/09/11 05:25:47;;;;;;;23.67;12.55;;;18.20;99.90;;;;;;5061273;28;20055;-81
2023/09/11 05:28:14;;;;;;;20.30;13.23;;;18.30;99.90;;;;;;5094321;28;20036;-82
2023/09/11 05:30:40;;;;;;;25.45;14.07;;;18.30;99.90;;;;;;5064697;28;20043;-81
2023/09/11 05:33:07;;;;;;;22.52;13.15;;;18.30;99.90;;;;;;5061283;28;20048;-82
2023/09/11 05:35:34;;;;;;;22.17;13.75;;;18.30;99.90;;;;;;5061276;28;20036;-82
2023/09/11 05:38:01;;;;;;;23.55;13.35;;;18.30;99.90;;;;;;5061670;28;20043;-81
2023/09/11 05:40:27;;;;;;;18.95;13.55;;;18.40;99.90;;;;;;5060996;28;20043;-82
2023/09/11 05:42:54;;;;;;;20.38;13.35;;;18.40;99.90;;;;;;5077857;28;20047;-81
2023/09/11 05:45:21;;;;;;;19.25;13.38;;;18.40;99.90;;;;;;5094406;28;20113;-82
2023/09/11 05:47:47;;;;;;;19.92;13.60;;;18.40;99.90;;;;;;5093911;28;20450;-81
2023/09/11 05:50:14;;;;;;;23.73;13.52;;;18.40;99.90;;;;;;5061012;28;20388;-81
2023/09/11 05:52:41;;;;;;;23.00;14.25;;;18.50;99.90;;;;;;5077633;28;20104;-82
2023/09/11 05:55:08;;;;;;;26.40;13.35;;;18.50;99.90;;;;;;5077242;28;20075;-81
2023/09/11 05:57:34;;;;;;;21.25;12.57;;;18.60;99.90;;;;;;5060608;28;20085;-81
2023/09/11 06:00:08;;;;;;;21.40;12.80;;;18.60;99.90;;;;;;5060797;28;20036;-82
2023/09/11 06:02:35;;;;;;;19.63;11.98;;;18.70;99.90;;;;;;5078322;28;20079;-82
2023/09/11 06:05:05;;;;;;;19.42;11.88;;;18.70;99.90;;;;;;5060509;28;20078;-82
2023/09/11 06:07:32;;;;;;;26.55;13.13;;;18.70;99.90;;;;;;5077582;28;20040;-81
2023/09/11 06:09:59;;;;;;;19.45;12.20;;;18.80;99.90;;;;;;5060721;28;20059;-81
2023/09/11 06:12:29;;;;;;;20.77;13.27;;;18.90;99.90;;;;;;5076902;28;20055;-81
2023/09/11 06:14:56;;;;;;;19.25;12.00;;;19.00;99.90;;;;;;5078595;28;20490;-81
2023/09/11 06:17:23;;;;;;;23.88;12.82;;;19.00;99.90;;;;;;5093781;28;20079;-82
2023/09/11 06:19:50;;;;;;;20.08;12.75;;;19.10;99.90;;;;;;5060723;28;20131;-82
2023/09/11 06:22:16;;;;;;;23.40;12.23;;;19.20;99.90;;;;;;5060252;28;20039;-82
2023/09/11 06:24:43;;;;;;;21.25;11.85;;;19.20;99.90;;;;;;5089808;28;20049;-82
2023/09/11 06:27:10;;;;;;;20.48;11.70;;;19.30;99.90;;;;;;5073595;28;20051;-82
2023/09/11 06:29:36;;;;;;;24.88;11.77;;;19.40;99.90;;;;;;5073126;28;20044;-82
2023/09/11 06:32:03;;;;;;;22.10;12.23;;;19.40;99.90;;;;;;5056841;28;20044;-82
2023/09/11 06:34:30;;;;;;;32.72;12.35;;;19.50;99.90;;;;;;5073018;28;20900;-82
2023/09/11 06:36:58;;;;;;;23.52;12.20;;;19.50;99.90;;;;;;5073338;28;20097;-82
2023/09/11 06:39:24;;;;;;;22.13;11.32;;;19.60;99.90;;;;;;5090712;28;20037;-82
2023/09/11 06:41:51;;;;;;;22.13;11.48;;;19.70;99.90;;;;;;5076638;28;20500;-82
2023/09/11 06:44:18;;;;;;;17.25;11.40;;;19.70;99.90;;;;;;5110120;28;20039;-82
2023/09/11 06:46:48;;;;;;;31.88;11.88;;;19.80;99.90;;;;;;5092986;28;20051;-82
2023/09/11 06:49:14;;;;;;;25.92;12.05;;;19.80;99.90;;;;;;5077501;28;20036;-82
2023/09/11 06:51:41;;;;;;;20.67;11.45;;;19.90;99.90;;;;;;5076015;28;20131;-82
2023/09/11 06:54:09;;;;;;;22.73;11.27;;;20.00;99.90;;;;;;5076707;28;20040;-82
2023/09/11 06:56:36;;;;;;;21.25;11.68;;;20.00;99.90;;;;;;5126329;28;20055;-86
2023/09/11 06:59:03;;;;;;;22.60;11.77;;;20.20;99.90;;;;;;5093504;28;20484;-86
2023/09/11 07:01:31;;;;;;;22.35;11.82;;;20.20;99.90;;;;;;5080603;28;20040;-82
2023/09/11 07:03:58;;;;;;;24.30;11.13;;;20.30;99.90;;;;;;5087377;28;20044;-82
2023/09/11 07:06:24;;;;;;;17.65;10.95;;;20.40;99.90;;;;;;5084088;28;20059;-82
2023/09/11 07:08:51;;;;;;;19.75;10.32;;;20.50;99.90;;;;;;5079777;28;20041;-82
2023/09/11 07:11:18;;;;;;;26.25;10.73;;;20.60;99.90;;;;;;5073535;28;20128;-82
2023/09/11 07:13:45;;;;;;;22.52;11.27;;;20.70;99.90;;;;;;5072624;28;20505;-83
2023/09/11 07:16:12;;;;;;;23.00;10.40;;;20.80;99.90;;;;;;5055883;28;20044;-82
2023/09/11 07:18:39;;;;;;;21.15;10.55;;;20.90;99.90;;;;;;5088883;28;20089;-82
2023/09/11 07:21:05;;;;;;;22.00;10.32;;;21.00;99.90;;;;;;5106400;28;20044;-82
2023/09/11 07:23:33;;;;;;;19.95;10.85;;;21.10;99.90;;;;;;5083210;28;20040;-82
2023/09/11 07:29:04;;;;;;;27.10;10.70;;;21.30;99.90;;;;;;5084938;28;20051;-82
2023/09/11 07:31:32;;;;;;;27.75;10.93;;;21.50;99.90;;;;;;5127144;28;20036;-84
2023/09/11 07:33:59;;;;;;;22.77;10.85;;;21.60;99.90;;;;;;5096275;28;20160;-84
2023/09/11 07:36:27;;;;;;;22.98;10.52;;;21.70;99.90;;;;;;5096447;28;20206;-84
2023/09/11 07:38:54;;;;;;;21.65;10.88;;;21.80;99.90;;;;;;5112876;28;20042;-84
2023/09/11 07:41:21;;;;;;;19.23;10.20;;;21.90;99.90;;;;;;5096275;28;20043;-85
2023/09/11 07:43:50;;;;;;;22.00;10.73;;;21.90;99.90;;;;;;5095757;28;20047;-85
2023/09/11 07:46:22;;;;;;;17.20;9.88;;;22.00;99.90;;;;;;5096552;28;20126;-84
2023/09/11 07:48:49;;;;;;;17.25;10.32;;;22.10;99.90;;;;;;5096023;28;20039;-84
2023/09/11 07:51:16;;;;;;;18.05;9.77;;;22.20;99.90;;;;;;5129248;28;20126;-85
2023/09/11 07:53:44;;;;;;;18.15;9.68;;;22.30;99.90;;;;;;5112204;28;20095;-85
2023/09/11 07:56:11;;;;;;;22.63;9.20;;;22.40;99.90;;;;;;5096029;28;20040;-85
2023/09/11 07:58:38;;;;;;;20.83;10.07;;;22.50;99.90;;;;;;5095698;28;20438;-84
2023/09/11 08:01:05;;;;;;;20.05;9.43;;;22.60;99.90;;;;;;5095859;28;20039;-84
2023/09/11 08:03:32;;;;;;;15.82;9.80;;;22.70;99.90;;;;;;5095566;28;20557;-84
2023/09/11 08:06:05;;;;;;;24.40;10.50;;;22.80;99.90;;;;;;5129130;28;20043;-85
2023/09/11 08:08:32;;;;;;;23.52;10.48;;;22.90;99.90;;;;;;5112117;28;20044;-83
2023/09/11 08:10:59;;;;;;;20.98;10.10;;;22.90;99.90;;;;;;5112444;28;20069;-85
2023/09/11 08:13:25;;;;;;;23.55;9.65;;;23.00;99.90;;;;;;5129382;28;20503;-85
2023/09/11 08:15:53;;;;;;;19.10;9.90;;;23.10;99.90;;;;;;5095493;28;20492;-85
2023/09/11 08:18:19;;;;;;;22.15;9.50;;;23.20;99.90;;;;;;5095624;28;20399;-85
2023/09/11 08:20:46;;;;;;;22.15;9.55;;;23.30;99.90;;;;;;5078834;28;20040;-85
2023/09/11 08:23:13;;;;;;;18.95;9.52;;;23.40;99.90;;;;;;5095611;28;20480;-85
2023/09/11 08:25:40;;;;;;;20.65;10.13;;;23.60;99.90;;;;;;5111569;28;20437;-84
2023/09/11 08:28:06;;;;;;;21.77;9.50;;;23.70;99.90;;;;;;5095488;28;20081;-85
2023/09/11 08:30:33;;;;;;;20.73;9.52;;;23.80;99.90;;;;;;5095835;28;20495;-85
2023/09/11 08:33:02;;;;;;;25.15;10.23;;;23.90;99.90;;;;;;5078812;28;20032;-85
2023/09/11 08:35:30;;;;;;;23.88;10.15;;;24.00;99.90;;;;;;5129196;28;20132;-85
2023/09/11 08:37:57;;;;;;;17.13;9.98;;;24.20;99.90;;;;;;5114848;28;20035;-85
2023/09/11 08:40:30;;;;;;;19.77;8.75;;;24.30;99.90;;;;;;5099342;28;20365;-85
2023/09/11 08:42:58;;;;;;;18.45;9.65;;;24.50;99.90;;;;;;5115161;28;20043;-85
2023/09/11 08:45:26;;;;;;;20.58;9.90;;;24.50;99.90;;;;;;5099065;28;20040;-85
2023/09/11 08:47:57;;;;;;;15.30;9.25;;;24.60;99.90;;;;;;5098943;28;20559;-85
2023/09/11 08:50:32;;;;;;;21.17;9.00;;;24.70;99.90;;;;;;5132650;28;20028;-85
2023/09/11 08:52:59;;;;;;;19.15;9.15;;;24.80;99.90;;;;;;5098821;28;20035;-85
2023/09/11 08:55:28;;;;;;;18.10;8.23;;;24.90;99.90;;;;;;5132207;28;20048;-85
2023/09/11 08:57:59;;;;;;;19.02;8.70;;;25.00;99.90;;;;;;5115491;28;20123;-85
2023/09/11 09:00:27;;;;;;;22.55;8.82;;;25.10;99.90;;;;;;5115260;28;20488;-85
2023/09/11 09:02:54;;;;;;;19.67;8.88;;;25.20;99.90;;;;;;5098612;28;20488;-85
2023/09/11 09:05:21;;;;;;;21.40;9.38;;;25.30;99.90;;;;;;5098760;28;20042;-85
2023/09/11 09:07:48;;;;;;;17.17;8.50;;;25.40;99.90;;;;;;5114901;28;20402;-84
2023/09/11 09:10:16;;;;;;;16.17;7.97;;;25.50;99.90;;;;;;5081956;28;20042;-85
2023/09/11 09:12:44;;;;;;;20.85;8.43;;;25.60;99.90;;;;;;5114720;28;20051;-85
2023/09/11 09:15:11;;;;;;;16.92;7.90;;;25.70;99.90;;;;;;5115008;28;20513;-85
2023/09/11 09:17:38;;;;;;;17.55;8.10;;;25.90;99.90;;;;;;5114737;28;20509;-85
2023/09/11 09:20:05;;;;;;;12.85;6.88;;;26.00;99.90;;;;;;5114408;28;20032;-85
2023/09/11 09:22:32;;;;;;;13.57;6.93;;;26.10;99.90;;;;;;5082234;28;20046;-85
2023/09/11 09:24:59;;;;;;;14.60;7.20;;;26.10;99.90;;;;;;5114905;28;20035;-85
2023/09/11 09:27:28;;;;;;;13.02;7.30;;;26.20;99.90;;;;;;5098049;28;20179;-85
2023/09/11 09:29:54;;;;;;;14.95;6.13;;;26.30;99.90;;;;;;5098135;28;20499;-86
2023/09/11 09:32:21;;;;;;;14.68;6.35;;;26.30;99.90;;;;;;5081247;28;20046;-85
2023/09/11 09:34:52;;;;;;;17.02;6.80;;;26.40;99.90;;;;;;5114466;28;20036;-85
2023/09/11 09:37:20;;;;;;;17.50;6.85;;;26.60;99.90;;;;;;5131663;28;20043;-85
2023/09/11 09:39:48;;;;;;;22.42;7.30;;;26.60;99.90;;;;;;5097876;28;20095;-85
2023/09/11 09:42:16;;;;;;;18.80;6.47;;;26.70;99.90;;;;;;5098324;28;20036;-85
2023/09/11 09:44:55;;;;;;;18.75;7.10;;;26.80;99.90;;;;;;5114817;28;20069;-85
2023/09/11 09:47:22;;;;;;;12.00;6.13;;;26.90;99.90;;;;;;5114328;28;20122;-85
2023/09/11 09:49:54;;;;;;;17.23;6.05;;;27.00;99.90;;;;;;5097648;28;20050;-85
2023/09/11 09:52:26;;;;;;;11.65;6.15;;;27.20;99.90;;;;;;5098071;28;20039;-86
2023/09/11 09:54:55;;;;;;;11.60;5.82;;;27.20;99.90;;;;;;5098238;28;20036;-85
2023/09/11 09:57:24;;;;;;;9.80;5.20;;;27.30;99.90;;;;;;5114278;28;20531;-85
2023/09/11 09:59:57;;;;;;;15.55;5.97;;;27.40;99.90;;;;;;5130705;28;20395;-85
2023/09/11 10:02:29;;;;;;;16.90;5.93;;;27.40;99.90;;;;;;5114188;28;20407;-85
2023/09/11 10:05:08;;;;;;;15.43;5.93;;;27.50;99.90;;;;;;5130150;28;20445;-85
2023/09/11 10:07:45;;;;;;;16.80;6.35;;;27.60;99.90;;;;;;5114009;28;20036;-85
2023/09/11 10:10:28;;;;;;;10.43;5.90;;;27.60;99.90;;;;;;5130930;28;20043;-85
2023/09/11 10:13:08;;;;;;;10.80;5.43;;;27.70;99.90;;;;;;5130409;28;20036;-85
2023/09/11 10:15:38;;;;;;;12.02;5.55;;;27.70;99.90;;;;;;5114141;28;20050;-86
2023/09/11 10:18:07;;;;;;;11.80;5.55;;;27.80;99.90;;;;;;5097070;28;20039;-85
2023/09/11 10:20:35;;;;;;;12.10;5.32;;;27.90;99.90;;;;;;5130688;28;20040;-86
2023/09/11 10:23:06;;;;;;;15.23;5.72;;;28.00;99.90;;;;;;5113918;28;20458;-85
2023/09/11 10:25:42;;;;;;;12.40;4.85;;;28.00;99.90;;;;;;5096913;28;20498;-85
2023/09/11 10:28:28;;;;;;;13.38;5.45;;;28.10;99.90;;;;;;5102992;28;20047;-84
2023/09/11 10:31:04;;;;;;;17.27;5.60;;;28.10;99.90;;;;;;5092910;28;20078;-80
2023/09/11 10:33:33;;;;;;;12.45;5.50;;;28.20;99.90;;;;;;5109543;28;20085;-78
2023/09/11 10:36:05;;;;;;;14.82;6.47;;;28.20;99.90;;;;;;5087803;28;20039;-80
2023/09/11 10:38:34;;;;;;;12.48;5.97;;;28.20;99.90;;;;;;5129988;28;20511;-82
2023/09/11 10:41:02;;;;;;;13.38;5.38;;;28.30;99.90;;;;;;5097087;28;20575;-81
2023/09/11 10:43:29;;;;;;;16.50;6.18;;;28.30;99.90;;;;;;5096781;28;20562;-81
2023/09/11 10:45:56;;;;;;;16.77;5.50;;;28.40;99.90;;;;;;5079816;28;20137;-81
2023/09/11 10:48:30;;;;;;;14.82;5.70;;;28.40;99.90;;;;;;5113371;28;20610;-81
2023/09/11 10:50:59;;;;;;;11.88;5.32;;;28.40;99.90;;;;;;5096376;28;20040;-80
2023/09/11 10:53:28;;;;;;;14.10;5.10;;;28.30;99.90;;;;;;5113249;28;20126;-82
2023/09/11 10:55:59;;;;;;;18.15;5.13;;;28.40;99.90;;;;;;5096808;28;20035;-82
2023/09/11 10:58:28;;;;;;;10.30;5.10;;;28.40;99.90;;;;;;5096933;28;20407;-82
2023/09/11 11:00:56;;;;;;;15.05;5.47;;;28.50;99.90;;;;;;5112561;28;20453;-81
2023/09/11 11:03:30;;;;;;;12.68;5.43;;;28.50;99.90;;;;;;5096198;28;20047;-83
2023/09/11 11:06:01;;;;;;;10.10;5.00;;;28.60;99.90;;;;;;5095335;28;20082;-84
2023/09/11 11:08:33;;;;;;;18.25;5.15;;;28.70;99.90;;;;;;5113189;28;20127;-84
2023/09/11 11:11:02;;;;;;;10.82;5.25;;;28.60;99.90;;;;;;5113212;28;20040;-82
2023/09/11 11:13:30;;;;;;;10.80;4.85;;;28.60;99.90;;;;;;5112384;28;20403;-83
2023/09/11 11:16:14;;;;;;;14.80;5.80;;;28.70;99.90;;;;;;5096306;28;20036;-84
2023/09/11 11:18:42;;;;;;;13.18;5.72;;;28.70;99.90;;;;;;5113745;28;20035;-84
2023/09/11 11:21:09;;;;;;;10.68;6.00;;;28.80;99.90;;;;;;5096187;28;20511;-84
2023/09/11 11:24:04;;;;;;;9.73;5.60;;;28.80;99.90;;;;;;5096347;28;20039;-84
2023/09/11 11:26:35;;;;;;;14.63;5.40;;;28.80;99.90;;;;;;5108701;28;20127;-84
2023/09/11 11:29:03;;;;;;;9.25;5.60;;;28.70;99.90;;;;;;5092709;28;20075;-83
2023/09/11 11:31:31;;;;;;;12.77;5.60;;;28.80;99.90;;;;;;5059729;28;20079;-84
2023/09/11 11:33:59;;;;;;;12.73;6.15;;;28.70;99.90;;;;;;5109386;28;20040;-84
2023/09/11 11:36:27;;;;;;;8.90;5.53;;;28.70;99.90;;;;;;5091654;28;20039;-83
2023/09/11 11:38:54;;;;;;;17.65;5.75;;;28.80;99.90;;;;;;5096330;28;20042;-84
2023/09/11 11:41:22;;;;;;;11.50;5.88;;;28.80;99.90;;;;;;5112333;28;20048;-84
2023/09/11 11:43:50;;;;;;;15.25;5.28;;;28.80;99.90;;;;;;5096533;28;20043;-84
2023/09/11 11:46:21;;;;;;;16.75;6.15;;;28.90;99.90;;;;;;5112793;28;20043;-83
2023/09/11 11:48:48;;;;;;;12.82;5.78;;;28.90;99.90;;;;;;5113125;28;20065;-83
2023/09/11 11:51:15;;;;;;;12.05;5.90;;;28.80;99.90;;;;;;5095933;28;20039;-83
2023/09/11 11:53:42;;;;;;;10.00;5.60;;;28.90;99.90;;;;;;5096239;28;20043;-84
2023/09/11 11:56:10;;;;;;;13.75;6.15;;;28.90;99.90;;;;;;5079347;28;20027;-83
2023/09/11 11:58:36;;;;;;;10.60;5.47;;;28.90;99.90;;;;;;5095054;28;20079;-84
2023/09/11 12:01:05;;;;;;;12.98;5.55;;;29.00;99.90;;;;;;5073383;28;20078;-84
2023/09/11 12:03:45;;;;;;;11.63;5.60;;;29.00;99.90;;;;;;5098504;28;20395;-80
2023/09/11 12:06:13;;;;;;;12.90;5.97;;;29.00;99.90;;;;;;5038386;23;20084;-80
2023/09/11 12:08:41;;;;;;;9.32;5.43;;;29.00;99.90;;;;;;5043144;28;20121;-81
2023/09/11 12:11:08;;;;;;;10.68;5.63;;;28.90;99.90;;;;;;4998819;28;20046;-81
2023/09/11 12:13:35;;;;;;;9.50;5.38;;;29.00;99.90;;;;;;4999516;28;20449;-81
2023/09/11 12:16:02;;;;;;;13.85;5.93;;;29.00;99.90;;;;;;4985252;28;20039;-81
2023/09/11 12:18:30;;;;;;;8.48;5.57;;;29.00;99.90;;;;;;5004636;28;20037;-81
2023/09/11 12:21:02;;;;;;;8.95;4.95;;;28.90;99.90;;;;;;5014262;28;20074;-81
2023/09/11 12:23:30;;;;;;;12.20;6.68;;;29.00;99.90;;;;;;5029272;28;20076;-81
2023/09/11 12:25:57;;;;;;;13.27;5.82;;;29.10;99.90;;;;;;5009223;28;20060;-82
2023/09/11 12:28:24;;;;;;;12.95;6.13;;;29.00;99.90;;;;;;5004767;28;20491;-81
2023/09/11 12:30:54;;;;;;;12.18;5.85;;;29.00;99.90;;;;;;5011927;28;20054;-81
2023/09/11 12:33:26;;;;;;;14.65;6.38;;;29.00;99.90;;;;;;5017223;28;20152;-81
2023/09/11 12:35:56;;;;;;;10.90;5.80;;;28.80;99.90;;;;;;5024405;28;20036;-82
2023/09/11 12:38:24;;;;;;;15.02;6.10;;;28.90;99.90;;;;;;5003926;28;20069;-81
2023/09/11 12:40:51;;;;;;;12.02;6.40;;;28.90;99.90;;;;;;5007212;28;20061;-81
2023/09/11 12:43:20;;;;;;;9.82;5.95;;;29.00;99.90;;;;;;5022297;28;20042;-81